sensor_id;sensor_type;location;lat;lon;timestamp;P1;durP1;ratioP1;P2;durP2;ratioP2
54665;SDS011;40566;50.006;36.180;2022-12-18T00:00:51;13.13;;;4.65;;
54665;SDS011;40566;50.006;36.180;2022-12-18T00:05:52;12.60;;;4.38;;
54665;SDS011;40566;50.006;36.180;2022-12-18T00:10:52;8.95;;;4.50;;
54665;SDS011;40566;50.006;36.180;2022-12-18T00:15:53;13.02;;;4.95;;
54665;SDS011;40566;50.006;36.180;2022-12-18T00:20:54;10.25;;;5.18;;
54665;SDS011;40566;50.006;36.180;2022-12-18T00:25:59;13.88;;;5.22;;
54665;SDS011;40566;50.006;36.180;2022-12-18T00:31:01;15.52;;;5.68;;
54665;SDS011;40566;50.006;36.180;2022-12-18T00:36:18;8.90;;;3.75;;
54665;SDS011;40566;50.006;36.180;2022-12-18T00:41:20;7.57;;;2.83;;
54665;SDS011;40566;50.006;36.180;2022-12-18T00:46:41;8.93;;;3.05;;
54665;SDS011;40566;50.006;36.180;2022-12-18T00:51:42;7.28;;;3.10;;
54665;SDS011;40566;50.006;36.180;2022-12-18T00:56:43;7.70;;;3.22;;
54665;SDS011;40566;50.006;36.180;2022-12-18T01:01:44;8.38;;;3.25;;
54665;SDS011;40566;50.006;36.180;2022-12-18T01:06:45;11.10;;;4.72;;
54665;SDS011;40566;50.006;36.180;2022-12-18T01:11:45;8.27;;;4.00;;
54665;SDS011;40566;50.006;36.180;2022-12-18T01:16:46;12.98;;;4.35;;
54665;SDS011;40566;50.006;36.180;2022-12-18T01:21:47;13.20;;;5.00;;
54665;SDS011;40566;50.006;36.180;2022-12-18T01:26:47;10.50;;;4.45;;
54665;SDS011;40566;50.006;36.180;2022-12-18T01:31:48;9.68;;;4.18;;
54665;SDS011;40566;50.006;36.180;2022-12-18T01:36:48;13.05;;;5.72;;
54665;SDS011;40566;50.006;36.180;2022-12-18T01:41:52;12.18;;;5.45;;
54665;SDS011;40566;50.006;36.180;2022-12-18T01:47:04;14.95;;;5.90;;
54665;SDS011;40566;50.006;36.180;2022-12-18T01:52:05;11.90;;;4.95;;
54665;SDS011;40566;50.006;36.180;2022-12-18T01:57:06;13.20;;;4.88;;
54665;SDS011;40566;50.006;36.180;2022-12-18T02:02:06;12.02;;;4.55;;
54665;SDS011;40566;50.006;36.180;2022-12-18T02:12:21;9.82;;;4.03;;
54665;SDS011;40566;50.006;36.180;2022-12-18T02:17:45;10.02;;;4.10;;
54665;SDS011;40566;50.006;36.180;2022-12-18T02:28:06;10.57;;;4.47;;
54665;SDS011;40566;50.006;36.180;2022-12-18T02:33:12;13.18;;;4.75;;
54665;SDS011;40566;50.006;36.180;2022-12-18T02:38:14;13.35;;;4.15;;
54665;SDS011;40566;50.006;36.180;2022-12-18T02:43:16;9.90;;;4.30;;
54665;SDS011;40566;50.006;36.180;2022-12-18T02:48:18;9.38;;;4.32;;
54665;SDS011;40566;50.006;36.180;2022-12-18T02:53:31;12.85;;;5.15;;
54665;SDS011;40566;50.006;36.180;2022-12-18T02:58:47;10.95;;;4.38;;
54665;SDS011;40566;50.006;36.180;2022-12-18T03:04:07;10.77;;;3.30;;
54665;SDS011;40566;50.006;36.180;2022-12-18T03:09:34;8.45;;;2.95;;
54665;SDS011;40566;50.006;36.180;2022-12-18T03:14:38;9.95;;;4.57;;
54665;SDS011;40566;50.006;36.180;2022-12-18T03:19:42;7.05;;;3.05;;
54665;SDS011;40566;50.006;36.180;2022-12-18T03:24:46;9.30;;;3.53;;
54665;SDS011;40566;50.006;36.180;2022-12-18T03:29:50;8.80;;;2.95;;
54665;SDS011;40566;50.006;36.180;2022-12-18T03:34:55;6.78;;;2.95;;
54665;SDS011;40566;50.006;36.180;2022-12-18T03:40:01;8.60;;;3.60;;
54665;SDS011;40566;50.006;36.180;2022-12-18T03:50:59;6.53;;;2.58;;
54665;SDS011;40566;50.006;36.180;2022-12-18T03:55:51;6.05;;;2.65;;
54665;SDS011;40566;50.006;36.180;2022-12-18T04:00:53;5.88;;;2.55;;
54665;SDS011;40566;50.006;36.180;2022-12-18T04:05:59;3.80;;;1.98;;
54665;SDS011;40566;50.006;36.180;2022-12-18T04:11:02;4.43;;;1.92;;
54665;SDS011;40566;50.006;36.180;2022-12-18T04:16:03;6.50;;;2.33;;
54665;SDS011;40566;50.006;36.180;2022-12-18T04:21:04;4.93;;;2.20;;
54665;SDS011;40566;50.006;36.180;2022-12-18T04:26:04;5.53;;;2.40;;
54665;SDS011;40566;50.006;36.180;2022-12-18T04:31:05;4.10;;;2.03;;
54665;SDS011;40566;50.006;36.180;2022-12-18T04:36:06;5.07;;;1.60;;
54665;SDS011;40566;50.006;36.180;2022-12-18T04:41:06;4.03;;;1.60;;
54665;SDS011;40566;50.006;36.180;2022-12-18T04:46:08;4.28;;;1.73;;
54665;SDS011;40566;50.006;36.180;2022-12-18T04:51:09;2.20;;;1.27;;
54665;SDS011;40566;50.006;36.180;2022-12-18T04:56:11;3.17;;;1.30;;
54665;SDS011;40566;50.006;36.180;2022-12-18T05:01:13;2.60;;;1.25;;
54665;SDS011;40566;50.006;36.180;2022-12-18T05:06:15;2.08;;;0.98;;
54665;SDS011;40566;50.006;36.180;2022-12-18T05:11:16;3.22;;;1.33;;
54665;SDS011;40566;50.006;36.180;2022-12-18T05:16:16;2.45;;;1.10;;
54665;SDS011;40566;50.006;36.180;2022-12-18T05:21:17;1.35;;;0.77;;
54665;SDS011;40566;50.006;36.180;2022-12-18T05:26:18;2.63;;;1.10;;
54665;SDS011;40566;50.006;36.180;2022-12-18T05:31:19;2.30;;;1.33;;
54665;SDS011;40566;50.006;36.180;2022-12-18T05:36:19;2.70;;;1.40;;
54665;SDS011;40566;50.006;36.180;2022-12-18T05:41:20;2.50;;;1.38;;
54665;SDS011;40566;50.006;36.180;2022-12-18T05:46:20;2.28;;;1.27;;
54665;SDS011;40566;50.006;36.180;2022-12-18T05:51:21;3.20;;;1.30;;
54665;SDS011;40566;50.006;36.180;2022-12-18T05:56:22;2.47;;;1.20;;
54665;SDS011;40566;50.006;36.180;2022-12-18T06:01:24;2.65;;;1.10;;
54665;SDS011;40566;50.006;36.180;2022-12-18T06:06:27;5.28;;;1.42;;
54665;SDS011;40566;50.006;36.180;2022-12-18T06:11:28;2.60;;;1.02;;
54665;SDS011;40566;50.006;36.180;2022-12-18T06:16:29;3.72;;;1.23;;
54665;SDS011;40566;50.006;36.180;2022-12-18T06:21:31;3.20;;;1.50;;
54665;SDS011;40566;50.006;36.180;2022-12-18T06:26:32;2.78;;;1.40;;
54665;SDS011;40566;50.006;36.180;2022-12-18T06:31:33;4.18;;;1.60;;
54665;SDS011;40566;50.006;36.180;2022-12-18T06:36:33;5.00;;;1.80;;
54665;SDS011;40566;50.006;36.180;2022-12-18T06:41:34;3.05;;;1.73;;
54665;SDS011;40566;50.006;36.180;2022-12-18T06:46:35;3.83;;;1.55;;
54665;SDS011;40566;50.006;36.180;2022-12-18T06:51:35;5.60;;;1.95;;
54665;SDS011;40566;50.006;36.180;2022-12-18T06:56:36;3.38;;;1.40;;
54665;SDS011;40566;50.006;36.180;2022-12-18T07:01:37;3.78;;;1.60;;
54665;SDS011;40566;50.006;36.180;2022-12-18T07:06:37;3.63;;;1.42;;
54665;SDS011;40566;50.006;36.180;2022-12-18T07:11:38;3.15;;;1.60;;
54665;SDS011;40566;50.006;36.180;2022-12-18T07:16:38;2.83;;;1.52;;
54665;SDS011;40566;50.006;36.180;2022-12-18T07:21:39;4.00;;;1.70;;
54665;SDS011;40566;50.006;36.180;2022-12-18T07:26:39;3.42;;;1.67;;
54665;SDS011;40566;50.006;36.180;2022-12-18T07:31:40;4.13;;;1.90;;
54665;SDS011;40566;50.006;36.180;2022-12-18T07:36:41;4.15;;;1.92;;
54665;SDS011;40566;50.006;36.180;2022-12-18T07:41:41;4.07;;;2.00;;
54665;SDS011;40566;50.006;36.180;2022-12-18T07:46:45;4.82;;;1.90;;
54665;SDS011;40566;50.006;36.180;2022-12-18T07:51:47;5.43;;;2.20;;
54665;SDS011;40566;50.006;36.180;2022-12-18T07:56:49;4.63;;;1.85;;
54665;SDS011;40566;50.006;36.180;2022-12-18T08:01:50;3.60;;;1.65;;
54665;SDS011;40566;50.006;36.180;2022-12-18T08:06:51;5.28;;;2.40;;
54665;SDS011;40566;50.006;36.180;2022-12-18T08:11:52;5.00;;;2.20;;
54665;SDS011;40566;50.006;36.180;2022-12-18T08:16:52;7.10;;;2.20;;
54665;SDS011;40566;50.006;36.180;2022-12-18T08:21:53;7.25;;;2.38;;
54665;SDS011;40566;50.006;36.180;2022-12-18T08:26:53;7.38;;;2.17;;
54665;SDS011;40566;50.006;36.180;2022-12-18T08:31:54;7.47;;;3.00;;
54665;SDS011;40566;50.006;36.180;2022-12-18T08:36:54;11.20;;;3.67;;
54665;SDS011;40566;50.006;36.180;2022-12-18T08:41:55;9.68;;;3.47;;
54665;SDS011;40566;50.006;36.180;2022-12-18T08:47:14;10.23;;;3.55;;
54665;SDS011;40566;50.006;36.180;2022-12-18T08:52:15;6.13;;;2.38;;
54665;SDS011;40566;50.006;36.180;2022-12-18T08:57:15;6.88;;;2.63;;
54665;SDS011;40566;50.006;36.180;2022-12-18T09:02:16;8.73;;;2.83;;
54665;SDS011;40566;50.006;36.180;2022-12-18T09:07:17;9.57;;;3.22;;
54665;SDS011;40566;50.006;36.180;2022-12-18T09:12:17;8.82;;;3.25;;
54665;SDS011;40566;50.006;36.180;2022-12-18T09:17:18;12.02;;;4.20;;
54665;SDS011;40566;50.006;36.180;2022-12-18T09:22:18;9.40;;;3.17;;
54665;SDS011;40566;50.006;36.180;2022-12-18T09:27:19;11.77;;;4.10;;
54665;SDS011;40566;50.006;36.180;2022-12-18T09:32:19;10.75;;;3.88;;
54665;SDS011;40566;50.006;36.180;2022-12-18T09:37:20;8.80;;;3.40;;
54665;SDS011;40566;50.006;36.180;2022-12-18T09:42:21;10.00;;;3.95;;
54665;SDS011;40566;50.006;36.180;2022-12-18T09:47:27;9.73;;;4.13;;
54665;SDS011;40566;50.006;36.180;2022-12-18T09:52:34;11.15;;;4.40;;
54665;SDS011;40566;50.006;36.180;2022-12-18T09:57:40;9.68;;;4.70;;
54665;SDS011;40566;50.006;36.180;2022-12-18T10:02:45;10.68;;;4.57;;
54665;SDS011;40566;50.006;36.180;2022-12-18T10:08:00;10.27;;;4.05;;
54665;SDS011;40566;50.006;36.180;2022-12-18T10:13:18;11.93;;;4.78;;
54665;SDS011;40566;50.006;36.180;2022-12-18T10:28:56;9.13;;;3.75;;
54665;SDS011;40566;50.006;36.180;2022-12-18T10:33:58;9.75;;;3.63;;
54665;SDS011;40566;50.006;36.180;2022-12-18T10:39:13;11.05;;;4.22;;
54665;SDS011;40566;50.006;36.180;2022-12-18T10:44:20;10.00;;;4.13;;
54665;SDS011;40566;50.006;36.180;2022-12-18T10:49:31;13.63;;;5.80;;
54665;SDS011;40566;50.006;36.180;2022-12-18T10:54:34;12.02;;;4.78;;
54665;SDS011;40566;50.006;36.180;2022-12-18T10:59:49;12.90;;;4.28;;
54665;SDS011;40566;50.006;36.180;2022-12-18T11:04:55;16.27;;;5.40;;
54665;SDS011;40566;50.006;36.180;2022-12-18T11:10:01;11.65;;;4.88;;
54665;SDS011;40566;50.006;36.180;2022-12-18T11:15:02;11.63;;;4.18;;
54665;SDS011;40566;50.006;36.180;2022-12-18T11:20:07;14.48;;;4.72;;
54665;SDS011;40566;50.006;36.180;2022-12-18T11:25:29;11.88;;;4.47;;
54665;SDS011;40566;50.006;36.180;2022-12-18T11:30:32;11.75;;;4.72;;
54665;SDS011;40566;50.006;36.180;2022-12-18T11:40:43;15.40;;;6.05;;
54665;SDS011;40566;50.006;36.180;2022-12-18T11:50:52;13.00;;;4.57;;
54665;SDS011;40566;50.006;36.180;2022-12-18T12:27:55;15.23;;;6.03;;
54665;SDS011;40566;50.006;36.180;2022-12-18T12:38:34;15.30;;;5.90;;
54665;SDS011;40566;50.006;36.180;2022-12-18T12:43:44;18.17;;;6.40;;
54665;SDS011;40566;50.006;36.180;2022-12-18T12:48:53;12.95;;;6.10;;
54665;SDS011;40566;50.006;36.180;2022-12-18T12:54:17;17.55;;;6.28;;
54665;SDS011;40566;50.006;36.180;2022-12-18T13:04:36;17.88;;;6.70;;
54665;SDS011;40566;50.006;36.180;2022-12-18T13:15:11;15.10;;;6.50;;
54665;SDS011;40566;50.006;36.180;2022-12-18T13:20:20;11.55;;;4.75;;
54665;SDS011;40566;50.006;36.180;2022-12-18T13:35:37;14.90;;;6.13;;
54665;SDS011;40566;50.006;36.180;2022-12-18T13:45:43;21.63;;;7.85;;
54665;SDS011;40566;50.006;36.180;2022-12-18T13:51:00;17.13;;;6.10;;
54665;SDS011;40566;50.006;36.180;2022-12-18T13:56:03;14.40;;;6.43;;
54665;SDS011;40566;50.006;36.180;2022-12-18T14:01:10;14.60;;;5.60;;
54665;SDS011;40566;50.006;36.180;2022-12-18T14:06:21;18.33;;;6.75;;
54665;SDS011;40566;50.006;36.180;2022-12-18T14:11:22;16.73;;;6.65;;
54665;SDS011;40566;50.006;36.180;2022-12-18T14:16:23;13.43;;;5.35;;
54665;SDS011;40566;50.006;36.180;2022-12-18T14:21:30;12.55;;;5.93;;
54665;SDS011;40566;50.006;36.180;2022-12-18T14:26:34;11.13;;;4.10;;
54665;SDS011;40566;50.006;36.180;2022-12-18T14:31:34;10.05;;;4.07;;
54665;SDS011;40566;50.006;36.180;2022-12-18T14:36:35;12.07;;;4.70;;
54665;SDS011;40566;50.006;36.180;2022-12-18T14:41:36;8.20;;;2.95;;
54665;SDS011;40566;50.006;36.180;2022-12-18T14:46:37;16.73;;;5.65;;
54665;SDS011;40566;50.006;36.180;2022-12-18T14:51:42;13.32;;;5.15;;
54665;SDS011;40566;50.006;36.180;2022-12-18T15:07:23;12.30;;;5.63;;
54665;SDS011;40566;50.006;36.180;2022-12-18T15:12:26;9.80;;;4.35;;
54665;SDS011;40566;50.006;36.180;2022-12-18T15:17:33;10.98;;;4.03;;
54665;SDS011;40566;50.006;36.180;2022-12-18T15:22:34;9.50;;;3.50;;
54665;SDS011;40566;50.006;36.180;2022-12-18T15:27:36;9.57;;;4.35;;
54665;SDS011;40566;50.006;36.180;2022-12-18T15:32:38;11.20;;;3.90;;
54665;SDS011;40566;50.006;36.180;2022-12-18T15:37:44;11.80;;;4.35;;
54665;SDS011;40566;50.006;36.180;2022-12-18T15:42:45;8.82;;;3.42;;
54665;SDS011;40566;50.006;36.180;2022-12-18T15:48:39;10.35;;;3.28;;
54665;SDS011;40566;50.006;36.180;2022-12-18T15:53:35;10.57;;;4.40;;
54665;SDS011;40566;50.006;36.180;2022-12-18T15:58:36;10.90;;;3.90;;
54665;SDS011;40566;50.006;36.180;2022-12-18T16:03:36;13.15;;;5.03;;
54665;SDS011;40566;50.006;36.180;2022-12-18T16:08:37;11.85;;;3.97;;
54665;SDS011;40566;50.006;36.180;2022-12-18T16:13:38;8.05;;;3.25;;
54665;SDS011;40566;50.006;36.180;2022-12-18T16:18:38;11.63;;;4.20;;
54665;SDS011;40566;50.006;36.180;2022-12-18T16:23:39;11.80;;;3.97;;
54665;SDS011;40566;50.006;36.180;2022-12-18T16:28:39;9.68;;;3.85;;
54665;SDS011;40566;50.006;36.180;2022-12-18T16:33:40;12.05;;;5.07;;
54665;SDS011;40566;50.006;36.180;2022-12-18T16:38:41;12.43;;;4.28;;
54665;SDS011;40566;50.006;36.180;2022-12-18T16:43:42;12.10;;;4.20;;
54665;SDS011;40566;50.006;36.180;2022-12-18T16:48:42;9.98;;;3.42;;
54665;SDS011;40566;50.006;36.180;2022-12-18T16:53:43;9.65;;;3.28;;
54665;SDS011;40566;50.006;36.180;2022-12-18T16:58:43;9.15;;;3.60;;
54665;SDS011;40566;50.006;36.180;2022-12-18T17:03:53;8.48;;;2.83;;
54665;SDS011;40566;50.006;36.180;2022-12-18T17:08:55;7.82;;;3.42;;
54665;SDS011;40566;50.006;36.180;2022-12-18T17:13:57;9.85;;;3.25;;
54665;SDS011;40566;50.006;36.180;2022-12-18T17:18:58;8.35;;;2.65;;
54665;SDS011;40566;50.006;36.180;2022-12-18T17:23:59;8.88;;;3.20;;
54665;SDS011;40566;50.006;36.180;2022-12-18T17:29:00;8.75;;;2.30;;
54665;SDS011;40566;50.006;36.180;2022-12-18T17:34:01;9.43;;;2.90;;
54665;SDS011;40566;50.006;36.180;2022-12-18T17:39:03;6.53;;;2.63;;
54665;SDS011;40566;50.006;36.180;2022-12-18T17:44:04;10.35;;;3.22;;
54665;SDS011;40566;50.006;36.180;2022-12-18T17:49:05;9.15;;;3.03;;
54665;SDS011;40566;50.006;36.180;2022-12-18T17:54:06;8.02;;;2.35;;
54665;SDS011;40566;50.006;36.180;2022-12-18T17:59:07;11.55;;;3.60;;
54665;SDS011;40566;50.006;36.180;2022-12-18T18:04:07;7.05;;;2.70;;
54665;SDS011;40566;50.006;36.180;2022-12-18T18:09:08;6.55;;;2.85;;
54665;SDS011;40566;50.006;36.180;2022-12-18T18:14:16;11.25;;;3.95;;
54665;SDS011;40566;50.006;36.180;2022-12-18T18:19:20;8.77;;;2.60;;
54665;SDS011;40566;50.006;36.180;2022-12-18T18:24:22;6.47;;;2.58;;
54665;SDS011;40566;50.006;36.180;2022-12-18T18:29:25;9.45;;;3.85;;
54665;SDS011;40566;50.006;36.180;2022-12-18T18:34:27;6.47;;;3.15;;
54665;SDS011;40566;50.006;36.180;2022-12-18T18:39:29;6.28;;;2.67;;
54665;SDS011;40566;50.006;36.180;2022-12-18T18:44:30;5.47;;;2.08;;
54665;SDS011;40566;50.006;36.180;2022-12-18T18:49:30;6.55;;;2.35;;
54665;SDS011;40566;50.006;36.180;2022-12-18T18:54:31;9.45;;;2.90;;
54665;SDS011;40566;50.006;36.180;2022-12-18T18:59:32;4.40;;;1.90;;
54665;SDS011;40566;50.006;36.180;2022-12-18T19:04:32;9.05;;;3.08;;
54665;SDS011;40566;50.006;36.180;2022-12-18T19:09:33;9.45;;;3.65;;
54665;SDS011;40566;50.006;36.180;2022-12-18T19:14:35;16.33;;;6.07;;
54665;SDS011;40566;50.006;36.180;2022-12-18T19:19:36;8.23;;;2.95;;
54665;SDS011;40566;50.006;36.180;2022-12-18T19:24:36;8.48;;;3.08;;
54665;SDS011;40566;50.006;36.180;2022-12-18T19:29:37;36.75;;;22.40;;
54665;SDS011;40566;50.006;36.180;2022-12-18T19:34:39;8.55;;;3.67;;
54665;SDS011;40566;50.006;36.180;2022-12-18T19:39:39;6.72;;;2.45;;
54665;SDS011;40566;50.006;36.180;2022-12-18T19:44:40;5.85;;;2.13;;
54665;SDS011;40566;50.006;36.180;2022-12-18T19:49:40;8.75;;;2.65;;
54665;SDS011;40566;50.006;36.180;2022-12-18T19:54:41;7.40;;;2.70;;
54665;SDS011;40566;50.006;36.180;2022-12-18T19:59:42;7.43;;;3.33;;
54665;SDS011;40566;50.006;36.180;2022-12-18T20:04:43;4.95;;;2.00;;
54665;SDS011;40566;50.006;36.180;2022-12-18T20:09:44;8.63;;;2.92;;
54665;SDS011;40566;50.006;36.180;2022-12-18T20:14:44;8.15;;;3.00;;
54665;SDS011;40566;50.006;36.180;2022-12-18T20:19:45;7.72;;;2.42;;
54665;SDS011;40566;50.006;36.180;2022-12-18T20:24:45;10.13;;;3.50;;
54665;SDS011;40566;50.006;36.180;2022-12-18T20:29:46;5.55;;;2.13;;
54665;SDS011;40566;50.006;36.180;2022-12-18T20:34:47;8.45;;;2.92;;
54665;SDS011;40566;50.006;36.180;2022-12-18T20:39:48;6.20;;;2.17;;
54665;SDS011;40566;50.006;36.180;2022-12-18T20:44:50;9.43;;;2.97;;
54665;SDS011;40566;50.006;36.180;2022-12-18T20:49:52;6.93;;;2.60;;
54665;SDS011;40566;50.006;36.180;2022-12-18T20:54:53;7.47;;;2.30;;
54665;SDS011;40566;50.006;36.180;2022-12-18T20:59:54;6.45;;;2.67;;
54665;SDS011;40566;50.006;36.180;2022-12-18T21:04:54;6.22;;;2.58;;
54665;SDS011;40566;50.006;36.180;2022-12-18T21:09:55;6.47;;;2.95;;
54665;SDS011;40566;50.006;36.180;2022-12-18T21:15:05;6.90;;;2.28;;
54665;SDS011;40566;50.006;36.180;2022-12-18T21:20:08;5.57;;;1.75;;
54665;SDS011;40566;50.006;36.180;2022-12-18T21:25:09;5.93;;;2.67;;
54665;SDS011;40566;50.006;36.180;2022-12-18T21:30:10;5.68;;;2.30;;
54665;SDS011;40566;50.006;36.180;2022-12-18T21:35:11;9.13;;;2.55;;
54665;SDS011;40566;50.006;36.180;2022-12-18T21:40:12;6.70;;;2.22;;
54665;SDS011;40566;50.006;36.180;2022-12-18T21:45:12;7.78;;;2.78;;
54665;SDS011;40566;50.006;36.180;2022-12-18T21:50:13;6.57;;;2.60;;
54665;SDS011;40566;50.006;36.180;2022-12-18T21:55:14;6.40;;;2.35;;
54665;SDS011;40566;50.006;36.180;2022-12-18T22:00:14;7.20;;;2.58;;
54665;SDS011;40566;50.006;36.180;2022-12-18T22:05:16;9.15;;;3.25;;
54665;SDS011;40566;50.006;36.180;2022-12-18T22:10:16;5.53;;;1.92;;
54665;SDS011;40566;50.006;36.180;2022-12-18T22:15:17;8.85;;;2.55;;
54665;SDS011;40566;50.006;36.180;2022-12-18T22:20:18;6.53;;;2.47;;
54665;SDS011;40566;50.006;36.180;2022-12-18T22:25:18;6.50;;;2.45;;
54665;SDS011;40566;50.006;36.180;2022-12-18T22:30:19;8.75;;;3.17;;
54665;SDS011;40566;50.006;36.180;2022-12-18T22:35:19;5.90;;;2.22;;
54665;SDS011;40566;50.006;36.180;2022-12-18T22:40:21;10.88;;;3.28;;
54665;SDS011;40566;50.006;36.180;2022-12-18T22:45:26;6.55;;;2.47;;
54665;SDS011;40566;50.006;36.180;2022-12-18T22:50:27;7.20;;;2.78;;
54665;SDS011;40566;50.006;36.180;2022-12-18T22:55:27;8.55;;;2.88;;
54665;SDS011;40566;50.006;36.180;2022-12-18T23:00:28;9.70;;;3.25;;
54665;SDS011;40566;50.006;36.180;2022-12-18T23:05:29;7.13;;;2.45;;
54665;SDS011;40566;50.006;36.180;2022-12-18T23:10:30;6.90;;;2.67;;
54665;SDS011;40566;50.006;36.180;2022-12-18T23:15:30;8.25;;;3.10;;
54665;SDS011;40566;50.006;36.180;2022-12-18T23:20:31;6.70;;;2.20;;
54665;SDS011;40566;50.006;36.180;2022-12-18T23:25:33;3.08;;;1.50;;
54665;SDS011;40566;50.006;36.180;2022-12-18T23:30:34;10.75;;;3.20;;
54665;SDS011;40566;50.006;36.180;2022-12-18T23:35:35;10.00;;;2.67;;
54665;SDS011;40566;50.006;36.180;2022-12-18T23:40:35;9.40;;;2.70;;
54665;SDS011;40566;50.006;36.180;2022-12-18T23:45:36;6.10;;;2.47;;
54665;SDS011;40566;50.006;36.180;2022-12-18T23:50:37;6.80;;;2.20;;
54665;SDS011;40566;50.006;36.180;2022-12-18T23:55:39;5.93;;;1.88;;
